Time;durP1;ratioP1;P1;durP2;ratioP2;P2;SDS_P1;SDS_P2;PMS_P1;PMS_P2;Temp;Humidity;BMP_temperature;BMP_pressure;BME280_temperature;BME280_humidity;BME280_pressure;Samples;Min_cycle;Max_cycle;Signal;HPM_P1;HPM_P2
2021/04/19 00:00:11;;;;;;;3.80;3.35;;;;;;;15.63;71.22;99922.41;1667821;85;21394;-68
2021/04/19 00:02:41;;;;;;;3.75;3.20;;;;;;;15.58;71.29;99920.30;1680560;84;21238;-68
2021/04/19 00:05:13;;;;;;;3.85;3.45;;;;;;;15.61;71.25;99915.08;1679412;83;21203;-69
2021/04/19 00:07:42;;;;;;;3.50;3.00;;;;;;;15.67;71.03;99916.97;1691465;84;21151;-68
2021/04/19 00:10:14;;;;;;;3.67;3.08;;;;;;;15.62;71.09;99913.52;1683330;84;21172;-68
2021/04/19 00:12:43;;;;;;;3.90;3.37;;;;;;;15.58;71.21;99911.45;1691912;83;22294;-67
2021/04/19 00:15:13;;;;;;;3.33;2.92;;;;;;;15.54;71.30;99911.83;1686806;81;21163;-68
2021/04/19 00:17:42;;;;;;;3.80;3.40;;;;;;;15.50;71.33;99906.55;1696964;81;21583;-68
2021/04/19 00:20:13;;;;;;;3.95;3.10;;;;;;;15.58;71.20;99909.58;1689533;84;21139;-68
2021/04/19 00:22:40;;;;;;;4.40;3.20;;;;;;;15.57;71.15;99903.93;1705282;81;21135;-69
2021/04/19 00:25:09;;;;;;;5.20;3.47;;;;;;;15.53;71.23;99908.03;1694468;82;21465;-68
2021/04/19 00:27:36;;;;;;;4.62;3.60;;;;;;;15.48;71.30;99901.09;1701960;82;21691;-67
2021/04/19 00:30:06;;;;;;;4.45;3.10;;;;;;;15.45;71.32;99902.31;1700526;82;21128;-68
2021/04/19 00:32:33;;;;;;;4.67;3.45;;;;;;;15.47;71.31;99901.61;1698673;83;21634;-69
2021/04/19 00:35:03;;;;;;;3.30;3.00;;;;;;;15.55;71.14;99896.61;1699297;82;21588;-67
2021/04/19 00:37:31;;;;;;;3.67;3.10;;;;;;;15.51;71.17;99896.17;1688224;83;22116;-68
2021/04/19 00:40:00;;;;;;;3.72;3.00;;;;;;;15.46;71.23;99897.26;1700246;81;21135;-68
2021/04/19 00:42:27;;;;;;;3.58;3.27;;;;;;;15.42;71.34;99895.19;1672284;83;21139;-69
2021/04/19 00:44:55;;;;;;;3.98;3.27;;;;;;;15.39;71.38;99887.02;1700272;83;21118;-68
2021/04/19 00:47:23;;;;;;;4.55;3.50;;;;;;;15.47;71.24;99888.70;1694549;84;21147;-67
2021/04/19 00:49:50;;;;;;;3.77;3.08;;;;;;;15.46;71.13;99887.07;1695074;82;21238;-67
2021/04/19 00:52:19;;;;;;;4.70;3.47;;;;;;;15.43;71.22;99894.14;1702787;82;21154;-68
2021/04/19 00:54:48;;;;;;;3.58;3.27;;;;;;;15.39;71.26;99889.69;1701334;84;21221;-68
2021/04/19 00:57:17;;;;;;;4.45;3.75;;;;;;;15.35;71.37;99893.78;1694303;84;21178;-68
2021/04/19 00:59:45;;;;;;;3.87;3.47;;;;;;;15.39;71.39;99890.20;1694848;84;21142;-69
2021/04/19 01:02:13;;;;;;;3.92;3.25;;;;;;;15.44;71.12;99885.92;1699968;83;21230;-67
2021/04/19 01:04:43;;;;;;;4.08;3.35;;;;;;;15.41;71.17;99888.98;1678582;84;21194;-68
2021/04/19 01:07:11;;;;;;;3.37;3.08;;;;;;;15.37;71.22;99889.06;1686928;84;21186;-68
2021/04/19 01:09:38;;;;;;;3.90;3.33;;;;;;;15.33;71.33;99887.80;1689848;84;21690;-68
2021/04/19 01:12:08;;;;;;;3.60;3.20;;;;;;;15.29;71.41;99882.01;1696966;84;21182;-67
2021/04/19 01:14:38;;;;;;;3.77;3.17;;;;;;;15.34;71.34;99886.27;1692434;84;21263;-69
2021/04/19 01:17:07;;;;;;;4.10;3.42;;;;;;;15.37;71.20;99883.70;1710494;82;21178;-67
2021/04/19 01:19:34;;;;;;;3.92;3.52;;;;;;;15.33;71.25;99886.46;1712688;82;21188;-67
2021/04/19 01:22:02;;;;;;;3.70;3.30;;;;;;;15.28;71.34;99877.70;1705697;82;21732;-67
2021/04/19 01:24:30;;;;;;;3.65;3.30;;;;;;;15.24;71.44;99871.08;1706977;82;21123;-66
2021/04/19 01:27:00;;;;;;;4.15;3.50;;;;;;;15.26;71.47;99870.86;1680529;84;22318;-67
2021/04/19 01:29:27;;;;;;;3.85;3.45;;;;;;;15.33;71.25;99875.75;1674344;84;21132;-67
2021/04/19 01:31:55;;;;;;;3.27;2.90;;;;;;;15.31;71.24;99875.12;1711689;82;21174;-68
2021/04/19 01:34:23;;;;;;;3.77;3.20;;;;;;;15.26;71.30;99875.73;1697162;84;21214;-68
2021/04/19 01:36:54;;;;;;;5.05;3.83;;;;;;;15.23;71.35;99876.63;1703890;82;21202;-67
2021/04/19 01:39:24;;;;;;;3.77;3.37;;;;;;;15.19;71.44;99874.02;1718689;82;21211;-67
2021/04/19 01:41:52;;;;;;;3.98;3.58;;;;;;;15.20;71.44;99872.50;1709834;82;21448;-67
2021/04/19 01:44:19;;;;;;;4.03;3.60;;;;;;;15.26;71.30;99868.19;1716642;82;21106;-68
2021/04/19 01:46:49;;;;;;;4.15;3.75;;;;;;;15.23;71.36;99871.27;1712213;82;21583;-68
2021/04/19 01:49:21;;;;;;;3.80;3.42;;;;;;;15.18;71.38;99867.82;1712071;82;21154;-68
2021/04/19 01:51:48;;;;;;;3.98;3.55;;;;;;;15.14;71.46;99866.08;1705106;82;21210;-67
2021/04/19 01:54:16;;;;;;;4.08;3.62;;;;;;;15.14;71.52;99867.90;1704614;82;21201;-67
2021/04/19 01:56:44;;;;;;;3.90;3.40;;;;;;;15.21;71.30;99871.45;1713301;82;21560;-68
2021/04/19 01:59:12;;;;;;;4.20;3.77;;;;;;;15.21;71.26;99874.66;1723217;82;21151;-67
2021/04/19 02:02:05;;;;;;;3.87;3.33;;;;;;;15.16;71.32;99870.38;1703448;82;21579;-68
2021/04/19 02:05:03;;;;;;;4.03;3.62;;;;;;;15.12;71.41;99870.80;1707538;82;22226;-67
2021/04/19 02:08:04;;;;;;;6.42;3.45;;;;;;;15.07;71.49;99865.19;1708576;82;21243;-68
2021/04/19 02:11:16;;;;;;;4.15;3.75;;;;;;;15.08;71.49;99868.16;1666222;82;21192;-67
2021/04/19 02:14:19;;;;;;;3.52;3.22;;;;;;;15.10;71.35;99863.96;1709378;82;21595;-69
2021/04/19 02:17:13;;;;;;;3.20;2.87;;;;;;;15.03;71.53;99863.11;1736628;82;21182;-68
2021/04/19 02:20:03;;;;;;;4.25;3.60;;;;;;;14.96;71.73;99864.37;1734344;82;22276;-67
2021/04/19 02:22:37;;;;;;;4.55;3.47;;;;;;;14.93;71.87;99864.75;1706876;82;21198;-66
2021/04/19 02:25:22;;;;;;;3.80;3.25;;;;;;;15.00;71.66;99862.96;1715134;82;21363;-68
2021/04/19 02:27:55;;;;;;;3.85;3.42;;;;;;;14.98;71.68;99866.34;1733143;82;21155;-69
2021/04/19 02:30:23;;;;;;;4.42;3.77;;;;;;;14.93;71.75;99863.41;1734895;82;21592;-69
2021/04/19 02:32:52;;;;;;;4.00;3.37;;;;;;;14.89;71.83;99870.17;1703474;83;21372;-68
2021/04/19 02:35:24;;;;;;;3.40;3.10;;;;;;;14.88;71.89;99868.02;1730306;82;21675;-68
2021/04/19 02:38:04;;;;;;;3.72;3.12;;;;;;;14.98;71.71;99869.54;1730246;82;21151;-68
2021/04/19 02:40:35;;;;;;;3.72;3.42;;;;;;;14.98;71.64;99873.55;1726129;82;21187;-67
2021/04/19 02:43:04;;;;;;;3.80;3.40;;;;;;;14.92;71.69;99875.15;1734202;82;21142;-67
2021/04/19 02:45:32;;;;;;;3.70;3.33;;;;;;;14.90;71.76;99879.87;1735826;82;21391;-67
2021/04/19 02:48:13;;;;;;;4.35;3.77;;;;;;;14.90;71.87;99868.65;1745507;80;28235;-67
2021/04/19 02:50:46;;;;;;;3.75;3.40;;;;;;;14.92;71.80;99867.12;1714595;82;21189;-68
2021/04/19 02:53:13;;;;;;;3.45;3.15;;;;;;;14.97;71.66;99871.88;1727286;81;21203;-68
2021/04/19 02:55:41;;;;;;;4.00;3.35;;;;;;;14.91;71.64;99871.66;1742977;81;21094;-68
2021/04/19 02:58:09;;;;;;;3.92;3.52;;;;;;;14.89;71.70;99863.48;1676312;82;21143;-68
2021/04/19 03:00:48;;;;;;;3.62;3.27;;;;;;;14.85;71.77;99869.73;1730756;81;21594;-68
2021/04/19 03:03:24;;;;;;;3.52;3.22;;;;;;;14.88;71.74;99861.85;1747393;81;21204;-68
2021/04/19 03:05:53;;;;;;;3.60;3.30;;;;;;;14.97;71.50;99860.70;1742373;81;21385;-68
2021/04/19 03:08:26;;;;;;;3.33;3.02;;;;;;;14.93;71.54;99860.25;1750845;81;21181;-69
2021/04/19 03:10:58;;;;;;;3.87;3.45;;;;;;;14.88;71.61;99864.52;1753874;81;21574;-68
2021/04/19 03:13:27;;;;;;;4.15;3.35;;;;;;;14.85;71.65;99861.70;1749660;81;21188;-68
2021/04/19 03:15:57;;;;;;;3.62;3.25;;;;;;;14.83;71.72;99864.27;1752689;81;21211;-68
2021/04/19 03:18:25;;;;;;;3.98;3.58;;;;;;;14.89;71.59;99866.16;1749053;81;21365;-68
2021/04/19 03:21:19;;;;;;;3.55;3.22;;;;;;;14.91;71.47;99866.80;1749621;81;21188;-68
2021/04/19 03:23:52;;;;;;;3.90;3.27;;;;;;;14.87;71.49;99871.73;1718107;83;21350;-69
2021/04/19 03:26:27;;;;;;;3.83;3.45;;;;;;;14.82;71.61;99875.48;1727396;81;21167;-68
2021/04/19 03:28:56;;;;;;;4.17;3.33;;;;;;;14.79;71.69;99877.70;1717895;81;21137;-68
2021/04/19 03:31:33;;;;;;;3.80;3.35;;;;;;;14.81;71.79;99878.34;1741641;81;21375;-69
2021/04/19 03:34:08;;;;;;;4.87;3.95;;;;;;;14.90;71.58;99883.88;1743942;81;21169;-69
2021/04/19 03:36:37;;;;;;;3.83;3.12;;;;;;;14.86;71.58;99882.09;1750329;81;21197;-68
2021/04/19 03:39:05;;;;;;;3.70;3.40;;;;;;;14.83;71.68;99883.80;1746190;81;21161;-68
2021/04/19 03:41:37;;;;;;;3.70;3.35;;;;;;;14.78;71.74;99878.74;1712526;82;21194;-68
2021/04/19 03:44:05;;;;;;;3.72;3.25;;;;;;;14.80;71.85;99878.04;1680441;83;21370;-69
2021/04/19 03:46:35;;;;;;;4.00;3.22;;;;;;;14.89;71.67;99873.70;1713408;82;21138;-68
2021/04/19 03:49:11;;;;;;;4.30;3.52;;;;;;;14.89;71.65;99867.50;1717068;82;21471;-70
2021/04/19 03:51:43;;;;;;;4.28;3.65;;;;;;;14.87;71.72;99865.53;1727479;81;21200;-68
2021/04/19 03:54:11;;;;;;;4.00;3.20;;;;;;;14.82;71.82;99861.29;1722711;81;21135;-68
2021/04/19 03:56:39;;;;;;;4.10;3.70;;;;;;;14.80;71.98;99865.48;1752405;81;21362;-68
2021/04/19 03:59:14;;;;;;;3.52;3.22;;;;;;;14.86;71.97;99867.91;1732066;81;21242;-67
2021/04/19 04:01:44;;;;;;;4.15;3.52;;;;;;;14.94;71.83;99867.76;1710286;81;21153;-68
2021/04/19 04:04:12;;;;;;;4.25;3.60;;;;;;;14.93;71.87;99864.75;1726034;81;21115;-67
2021/04/19 04:06:52;;;;;;;4.05;3.50;;;;;;;14.96;72.04;99862.22;1751092;80;28700;-69
2021/04/19 04:09:21;;;;;;;3.87;3.58;;;;;;;14.90;72.10;99862.48;1733009;81;21185;-69
2021/04/19 04:11:49;;;;;;;4.35;3.95;;;;;;;14.96;72.08;99860.36;1731060;81;21391;-67
2021/04/19 04:14:18;;;;;;;4.37;3.98;;;;;;;15.07;71.84;99855.00;1742101;81;21165;-68
2021/04/19 04:16:46;;;;;;;4.33;3.90;;;;;;;15.07;72.02;99862.52;1734024;81;21135;-68
2021/04/19 04:19:15;;;;;;;4.05;3.60;;;;;;;15.04;72.26;99864.22;1740970;80;21202;-69
2021/04/19 04:21:52;;;;;;;4.17;3.77;;;;;;;15.08;72.56;99866.01;1850183;76;28646;-68
2021/04/19 04:24:22;;;;;;;4.67;3.52;;;;;;;15.10;72.61;99870.66;1813037;78;21127;-68
2021/04/19 04:26:49;;;;;;;4.25;3.75;;;;;;;15.20;72.56;99879.19;1816600;78;21372;-68
2021/04/19 04:29:18;;;;;;;4.05;3.65;;;;;;;15.20;72.65;99872.98;1818696;77;21626;-68
2021/04/19 04:31:48;;;;;;;4.22;3.80;;;;;;;15.18;72.88;99869.68;1828256;78;21140;-67
2021/04/19 04:34:18;;;;;;;4.17;3.50;;;;;;;15.16;73.05;99871.20;1834907;76;21208;-67
2021/04/19 04:36:47;;;;;;;4.45;3.95;;;;;;;15.23;73.12;99875.28;1812581;78;21613;-67
2021/04/19 04:39:16;;;;;;;4.03;3.70;;;;;;;15.31;73.07;99871.93;1836640;76;21262;-68
2021/04/19 04:41:47;;;;;;;3.62;3.22;;;;;;;15.31;73.19;99874.61;1811940;78;21182;-68
2021/04/19 04:44:35;;;;;;;4.25;3.85;;;;;;;15.29;73.39;99875.31;1804416;78;21147;-69
2021/04/19 04:47:34;;;;;;;5.03;3.80;;;;;;;15.29;73.55;99878.52;1818662;76;21140;-69
2021/04/19 04:50:22;;;;;;;4.58;3.58;;;;;;;15.36;73.57;99875.89;1823632;77;21127;-70
2021/04/19 04:53:07;;;;;;;4.10;3.70;;;;;;;15.42;73.44;99873.25;1804094;78;21369;-68
2021/04/19 04:55:36;;;;;;;3.98;3.58;;;;;;;15.39;73.63;99874.14;1811829;76;21172;-67
2021/04/19 04:58:04;;;;;;;3.98;3.60;;;;;;;15.37;73.81;99875.67;1809545;76;21101;-68
2021/04/19 05:00:32;;;;;;;5.03;3.75;;;;;;;15.41;73.84;99868.08;1808308;78;21844;-68
2021/04/19 05:02:59;;;;;;;4.17;3.70;;;;;;;15.50;73.68;99870.41;1814081;76;21149;-68
2021/04/19 05:05:27;;;;;;;4.97;4.33;;;;;;;15.52;73.71;99871.03;1821304;77;21591;-68
2021/04/19 05:07:54;;;;;;;4.15;3.75;;;;;;;15.51;73.75;99869.40;1800416;78;21110;-69
2021/04/19 05:10:21;;;;;;;4.60;3.95;;;;;;;15.50;73.84;99867.73;1840550;77;21171;-68
2021/04/19 05:12:48;;;;;;;4.87;3.87;;;;;;;15.57;73.84;99865.59;1850349;77;21207;-68
2021/04/19 05:15:16;;;;;;;4.50;3.77;;;;;;;15.66;73.69;99867.09;1854793;77;21136;-69
2021/04/19 05:17:44;;;;;;;4.97;3.80;;;;;;;15.67;73.73;99870.09;1839953;77;22374;-69
2021/04/19 05:20:14;;;;;;;3.98;3.55;;;;;;;15.65;73.79;99864.94;1815095;77;21586;-69
2021/04/19 05:22:42;;;;;;;4.20;3.60;;;;;;;15.65;73.88;99864.12;1789788;78;21132;-67
2021/04/19 05:25:11;;;;;;;3.85;3.33;;;;;;;15.71;73.90;99867.34;1793880;78;21169;-67
2021/04/19 05:27:38;;;;;;;4.75;3.95;;;;;;;15.80;73.69;99868.86;1800752;77;21597;-69
2021/04/19 05:30:08;;;;;;;3.67;3.35;;;;;;;15.82;73.75;99868.64;1813982;78;21428;-68
2021/04/19 05:32:35;;;;;;;4.45;3.95;;;;;;;15.79;73.76;99863.17;1814091;78;21610;-66
2021/04/19 05:35:04;;;;;;;4.55;3.70;;;;;;;15.78;73.86;99869.58;1835006;77;21148;-68
2021/04/19 05:37:31;;;;;;;4.75;3.52;;;;;;;15.86;73.84;99873.94;1798962;78;21194;-67
2021/04/19 05:40:00;;;;;;;4.00;3.55;;;;;;;15.95;73.66;99868.70;1831296;77;21208;-67
2021/04/19 05:42:28;;;;;;;4.22;3.58;;;;;;;15.95;73.64;99871.37;1827272;77;21139;-66
2021/04/19 05:44:55;;;;;;;4.00;3.60;;;;;;;15.95;73.75;99870.03;1851542;77;21145;-67
2021/04/19 05:47:22;;;;;;;3.77;3.37;;;;;;;15.94;73.82;99868.92;1831567;77;21176;-67
2021/04/19 05:49:50;;;;;;;3.92;3.52;;;;;;;16.00;73.82;99865.44;1850814;77;21148;-67
2021/04/19 05:52:19;;;;;;;4.72;4.03;;;;;;;16.10;73.62;99868.55;1839385;77;21136;-67
2021/04/19 05:54:47;;;;;;;4.05;3.58;;;;;;;16.09;73.60;99862.38;1854030;77;21408;-68
2021/04/19 05:57:43;;;;;;;4.47;3.62;;;;;;;16.08;73.63;99861.23;1853980;77;21176;-67
2021/04/19 06:00:25;;;;;;;3.90;3.20;;;;;;;16.08;73.62;99861.23;1832990;77;21128;-68
2021/04/19 06:03:19;;;;;;;3.33;3.02;;;;;;;16.18;73.50;99859.51;1841839;77;21136;-68
2021/04/19 06:06:10;;;;;;;3.50;3.20;;;;;;;16.25;73.31;99857.16;1814657;78;21173;-68
2021/04/19 06:08:44;;;;;;;3.62;2.92;;;;;;;16.22;73.40;99857.55;1823348;78;21190;-67
2021/04/19 06:11:30;;;;;;;3.60;3.30;;;;;;;16.19;73.49;99851.27;1810065;78;21093;-67
2021/04/19 06:14:00;;;;;;;3.80;3.42;;;;;;;16.21;73.56;99857.77;1811546;78;21557;-67
2021/04/19 06:16:27;;;;;;;3.75;3.27;;;;;;;16.31;73.36;99855.52;1846076;76;21130;-68
2021/04/19 06:18:55;;;;;;;3.90;3.55;;;;;;;16.34;73.36;99860.98;1821139;77;21183;-68
2021/04/19 06:21:23;;;;;;;3.98;3.42;;;;;;;16.33;73.41;99860.69;1803187;77;21282;-67
2021/04/19 06:23:50;;;;;;;3.45;3.15;;;;;;;16.33;73.42;99859.35;1803427;77;21767;-68
2021/04/19 06:26:17;;;;;;;3.60;3.27;;;;;;;16.36;73.41;99853.56;1814811;77;22451;-68
2021/04/19 06:28:51;;;;;;;4.53;3.25;;;;;;;16.45;73.05;99845.65;1810951;77;21482;-71
2021/04/19 06:31:20;;;;;;;3.75;3.10;;;;;;;16.48;73.11;99847.94;1788987;78;21532;-69
2021/04/19 06:34:03;;;;;;;6.55;3.35;;;;;;;16.47;73.30;99849.77;1821508;76;21195;-71
2021/04/19 06:36:39;;;;;;;3.80;3.17;;;;;;;16.48;73.43;99855.45;1816670;76;22042;-72
2021/04/19 06:39:08;;;;;;;4.58;3.45;;;;;;;16.53;73.47;99852.67;1811027;78;21559;-71
2021/04/19 06:41:35;;;;;;;4.22;3.45;;;;;;;16.62;73.26;99846.91;1816359;78;21582;-69
2021/04/19 06:44:04;;;;;;;4.78;3.60;;;;;;;16.64;73.19;99839.48;1822801;77;21590;-69
2021/04/19 06:46:37;;;;;;;4.45;3.47;;;;;;;16.64;73.21;99841.34;1798140;77;21398;-72
2021/04/19 06:49:06;;;;;;;5.42;3.25;;;;;;;16.64;73.17;99841.34;1815740;78;21209;-69
2021/04/19 06:51:33;;;;;;;4.92;3.30;;;;;;;16.66;73.16;99843.30;1797360;77;21144;-72
2021/04/19 06:54:02;;;;;;;4.08;3.20;;;;;;;16.76;72.97;99838.34;1821195;77;21139;-71
2021/04/19 06:56:40;;;;;;;3.75;3.20;;;;;;;16.79;72.85;99835.27;1796490;77;21226;-69
2021/04/19 06:59:18;;;;;;;4.47;3.33;;;;;;;16.79;72.81;99837.12;1837910;76;21820;-69
2021/04/19 07:01:52;;;;;;;4.20;2.90;;;;;;;16.77;72.80;99840.02;1839157;77;21135;-70
2021/04/19 07:04:26;;;;;;;3.72;2.85;;;;;;;16.77;72.79;99836.52;1791314;78;21178;-70
2021/04/19 07:06:55;;;;;;;5.70;3.52;;;;;;;16.85;72.65;99836.33;1807326;78;21111;-68
2021/04/19 07:09:27;;;;;;;3.60;2.87;;;;;;;16.93;72.47;99837.98;1809001;77;21571;-72
2021/04/19 07:12:03;;;;;;;4.40;3.60;;;;;;;16.92;72.45;99833.63;1834124;75;21185;-73
2021/04/19 07:14:32;;;;;;;3.85;3.35;;;;;;;16.90;72.43;99840.05;1849958;77;21174;-72
2021/04/19 07:16:59;;;;;;;3.75;3.05;;;;;;;16.90;72.44;99834.67;1831637;75;21091;-72
2021/04/19 07:19:27;;;;;;;3.27;2.90;;;;;;;16.94;72.41;99839.12;1836891;77;21099;-74
2021/04/19 07:21:55;;;;;;;3.37;3.08;;;;;;;17.05;72.16;99835.78;1828221;76;21142;-76
2021/04/19 07:24:26;;;;;;;3.42;2.95;;;;;;;17.07;72.07;99838.27;1823138;77;21350;-75
2021/04/19 07:26:52;;;;;;;3.65;3.27;;;;;;;17.05;72.07;99836.30;1798718;77;21146;-74
2021/04/19 07:29:20;;;;;;;3.72;3.17;;;;;;;17.05;72.11;99824.23;1832931;76;21145;-76
2021/04/19 07:31:53;;;;;;;3.60;3.00;;;;;;;17.06;72.09;99832.60;1817890;77;21202;-72
2021/04/19 07:34:26;;;;;;;3.42;2.80;;;;;;;17.10;72.02;99822.57;1817780;77;21130;-73
2021/04/19 07:37:03;;;;;;;4.67;2.95;;;;;;;17.22;71.77;99824.63;1812704;77;21404;-73
2021/04/19 07:41:53;;;;;;;3.40;3.10;;;;;;;17.26;71.73;99821.82;1863945;76;28970;-77
2021/04/19 07:44:46;;;;;;;3.33;2.90;;;;;;;17.16;71.78;99820.09;1788115;78;21122;-73
2021/04/19 07:47:41;;;;;;;3.77;3.05;;;;;;;17.15;71.80;99817.09;1787899;78;21198;-74
2021/04/19 07:50:22;;;;;;;3.52;3.02;;;;;;;17.19;71.74;99815.63;1797635;79;21179;-73
2021/04/19 07:53:05;;;;;;;3.12;2.83;;;;;;;17.28;71.52;99820.56;1788240;79;21174;-74
2021/04/19 07:55:40;;;;;;;3.05;2.65;;;;;;;17.27;71.57;99816.25;1788702;79;22126;-72
2021/04/19 07:58:21;;;;;;;3.30;3.00;;;;;;;17.26;71.58;99817.27;1768012;79;21140;-75
2021/04/19 08:00:53;;;;;;;3.25;2.83;;;;;;;17.25;71.58;99814.30;1763560;80;21188;-75
2021/04/19 08:03:22;;;;;;;3.00;2.70;;;;;;;17.25;71.61;99818.32;1774483;80;21100;-72
2021/04/19 08:05:51;;;;;;;3.70;3.00;;;;;;;17.35;71.51;99816.54;1774389;79;21145;-72
2021/04/19 08:08:31;;;;;;;4.72;2.92;;;;;;;17.41;71.33;99810.84;1805718;78;21151;-72
2021/04/19 08:11:20;;;;;;;3.00;2.70;;;;;;;17.41;71.28;99808.16;1763916;79;21163;-69
2021/04/19 08:13:47;;;;;;;5.92;4.67;;;;;;;17.40;71.26;99806.00;1787062;79;21380;-67
2021/04/19 08:16:21;;;;;;;5.03;4.08;;;;;;;17.39;71.25;99806.20;1783084;78;21147;-66
2021/04/19 08:18:50;;;;;;;6.83;4.80;;;;;;;17.44;71.46;99811.25;1771506;79;21195;-65
2021/04/19 08:21:27;;;;;;;7.65;5.17;;;;;;;17.59;71.49;99816.34;1774760;79;21199;-66
2021/04/19 08:23:55;;;;;;;6.40;4.83;;;;;;;17.64;71.39;99809.02;1774964;79;21147;-67
2021/04/19 08:26:22;;;;;;;6.22;4.83;;;;;;;17.65;71.29;99813.34;1774764;80;22650;-67
2021/04/19 08:28:51;;;;;;;5.12;4.53;;;;;;;17.64;71.25;99806.33;1816703;78;21155;-65
2021/04/19 08:31:18;;;;;;;5.62;4.47;;;;;;;17.65;71.12;99811.98;1804843;78;21103;-67
2021/04/19 08:33:46;;;;;;;5.10;4.17;;;;;;;17.66;71.04;99805.59;1787193;78;21121;-69
2021/04/19 08:36:15;;;;;;;5.80;4.85;;;;;;;17.76;70.83;99800.58;1802851;78;21543;-69
2021/04/19 08:38:43;;;;;;;6.97;4.08;;;;;;;17.81;70.56;99799.92;1808726;78;21383;-68
2021/04/19 08:41:11;;;;;;;5.15;4.62;;;;;;;17.80;70.55;99800.45;1799176;78;21281;-69
2021/04/19 08:43:39;;;;;;;7.45;5.00;;;;;;;17.81;70.42;99799.43;1793263;79;21152;-70
2021/04/19 08:46:11;;;;;;;5.12;4.58;;;;;;;17.79;70.26;99794.80;1788590;79;21207;-68
2021/04/19 08:48:40;;;;;;;4.72;4.20;;;;;;;17.81;70.18;99794.06;1788626;79;21128;-69
2021/04/19 08:51:07;;;;;;;7.00;4.47;;;;;;;17.82;70.17;99794.34;1756909;80;22041;-68
2021/04/19 08:53:36;;;;;;;5.45;4.95;;;;;;;17.93;69.99;99800.13;1772501;80;21127;-70
2021/04/19 08:56:05;;;;;;;4.50;3.87;;;;;;;17.98;69.72;99793.58;1755910;80;21602;-71
2021/04/19 08:58:34;;;;;;;5.03;4.30;;;;;;;17.99;69.60;99800.61;1826017;77;21135;-75
2021/04/19 09:01:01;;;;;;;4.58;3.90;;;;;;;17.99;69.53;99796.05;1819554;77;21131;-69
2021/04/19 09:03:28;;;;;;;5.87;4.30;;;;;;;18.00;69.45;99795.03;1839160;77;21353;-71
2021/04/19 09:05:56;;;;;;;5.05;4.20;;;;;;;18.03;69.30;99793.77;1800392;79;21077;-69
2021/04/19 09:08:23;;;;;;;4.00;3.60;;;;;;;18.06;69.21;99792.00;1764690;79;21193;-72
2021/04/19 09:11:00;;;;;;;4.67;3.95;;;;;;;18.14;69.09;99795.77;1755370;80;21132;-71
2021/04/19 09:13:34;;;;;;;4.33;3.75;;;;;;;18.26;68.73;99792.68;1789753;79;21148;-69
2021/04/19 09:16:21;;;;;;;4.35;3.90;;;;;;;18.27;68.43;99801.56;1773514;79;21200;-68
2021/04/19 09:18:57;;;;;;;3.87;3.58;;;;;;;18.27;68.33;99794.84;1771285;79;21199;-71
2021/04/19 09:21:42;;;;;;;4.70;4.22;;;;;;;18.27;68.22;99796.19;1776696;79;21148;-73
2021/04/19 09:24:12;;;;;;;4.87;4.35;;;;;;;18.26;68.13;99795.37;1797265;79;21142;-68
2021/04/19 09:26:55;;;;;;;4.22;3.83;;;;;;;18.26;68.07;99792.68;1775936;79;21155;-68
2021/04/19 09:29:32;;;;;;;4.22;3.83;;;;;;;18.26;68.02;99791.34;1787813;79;21343;-68
2021/04/19 09:32:18;;;;;;;4.90;4.08;;;;;;;18.35;67.86;99794.60;1760724;79;21142;-68
2021/04/19 09:34:54;;;;;;;5.62;4.22;;;;;;;18.43;67.56;99790.82;1783649;79;21163;-71
2021/04/19 09:37:36;;;;;;;3.72;3.35;;;;;;;18.43;67.51;99797.55;1774862;79;22206;-71
2021/04/19 09:40:08;;;;;;;4.67;4.28;;;;;;;18.42;67.49;99794.54;1830009;77;21750;-68
2021/04/19 09:43:05;;;;;;;4.35;3.65;;;;;;;18.44;67.40;99786.55;1762037;79;21503;-70
2021/04/19 09:45:50;;;;;;;4.50;3.70;;;;;;;18.47;67.27;99794.72;1759262;80;21256;-68
2021/04/19 09:48:34;;;;;;;4.58;3.45;;;;;;;18.50;67.08;99787.54;1795939;79;21135;-68
2021/04/19 09:51:17;;;;;;;3.80;3.30;;;;;;;18.54;66.89;99796.00;1785292;79;21638;-71
2021/04/19 09:53:59;;;;;;;;;;;;;;;18.58;66.73;99794.52;1779351;80;21191;-69
2021/04/19 09:56:48;;;;;;;3.47;3.17;;;;;;;18.60;66.61;99789.23;1758014;80;21215;-70
2021/04/19 09:59:18;;;;;;;4.08;3.20;;;;;;;18.60;66.62;99801.34;1789387;79;21155;-71
2021/04/19 10:01:48;;;;;;;3.37;3.08;;;;;;;18.73;66.33;99794.20;1782239;79;21158;-70
2021/04/19 10:04:17;;;;;;;5.22;3.35;;;;;;;18.87;65.91;99793.05;1789314;77;21032;-70
2021/04/19 10:06:58;;;;;;;4.45;3.40;;;;;;;18.93;65.63;99794.88;1708578;82;21161;-70
2021/04/19 10:09:27;;;;;;;4.25;3.33;;;;;;;18.97;65.42;99789.35;1661188;84;21271;-70
2021/04/19 10:12:04;;;;;;;3.52;3.22;;;;;;;19.01;65.21;99794.59;1670472;84;21204;-71
2021/04/19 10:14:37;;;;;;;3.25;2.90;;;;;;;19.05;65.06;99805.21;1666667;83;21180;-70
2021/04/19 10:17:19;;;;;;;3.60;3.30;;;;;;;19.08;64.89;99798.55;1673658;84;21759;-70
2021/04/19 10:19:48;;;;;;;4.22;3.27;;;;;;;19.10;64.75;99799.68;1667647;83;21166;-71
2021/04/19 10:22:17;;;;;;;3.80;3.50;;;;;;;19.12;64.70;99802.44;1664193;83;21378;-71
2021/04/19 10:24:54;;;;;;;3.55;3.25;;;;;;;19.13;64.59;99803.28;1666896;83;21216;-70
2021/04/19 10:27:32;;;;;;;3.67;3.37;;;;;;;19.14;64.49;99804.41;1669830;83;21218;-71
2021/04/19 10:30:17;;;;;;;3.60;3.30;;;;;;;19.16;64.44;99809.55;1676630;83;21173;-69
2021/04/19 10:32:44;;;;;;;4.22;3.83;;;;;;;19.17;64.41;99805.83;1678874;83;21220;-68
2021/04/19 10:35:39;;;;;;;3.58;2.80;;;;;;;19.16;64.33;99812.25;1677490;84;22692;-69
2021/04/19 10:38:09;;;;;;;3.25;2.95;;;;;;;19.22;64.19;99812.73;1669182;84;21181;-69
2021/04/19 10:40:36;;;;;;;3.40;3.10;;;;;;;19.31;63.94;99803.28;1674989;83;21212;-68
2021/04/19 10:45:47;;;;;;;3.80;3.35;;;;;;;19.33;63.90;99803.87;1834716;77;22746;-69
2021/04/19 10:48:22;;;;;;;3.52;3.22;;;;;;;19.29;63.90;99810.77;1789321;77;21111;-68
2021/04/19 10:50:51;;;;;;;3.20;2.87;;;;;;;19.29;63.85;99805.38;1816093;78;21161;-68
2021/04/19 10:53:38;;;;;;;3.20;2.90;;;;;;;19.27;63.88;99803.44;1822010;77;21150;-68
2021/04/19 10:56:08;;;;;;;2.77;2.58;;;;;;;19.26;63.89;99804.50;1787816;77;21200;-68
2021/04/19 10:58:37;;;;;;;3.00;2.75;;;;;;;19.24;63.93;99812.80;1785067;79;21211;-69
2021/04/19 11:01:06;;;;;;;3.27;2.98;;;;;;;19.23;63.94;99810.31;1784902;79;21714;-69
2021/04/19 11:03:36;;;;;;;3.55;3.12;;;;;;;19.19;64.01;99807.24;1785015;79;21193;-69
2021/04/19 11:06:10;;;;;;;3.10;2.80;;;;;;;19.18;64.13;99807.45;1792253;77;21012;-69
2021/04/19 11:09:08;;;;;;;3.35;3.05;;;;;;;19.15;64.14;99803.35;1793424;78;21136;-68
2021/04/19 11:11:47;;;;;;;3.20;3.00;;;;;;;19.12;64.13;99802.97;1795341;77;21457;-69
2021/04/19 11:14:24;;;;;;;3.12;2.60;;;;;;;19.08;64.32;99813.36;1800397;79;21133;-70
2021/04/19 11:16:55;;;;;;;3.20;2.90;;;;;;;19.10;64.34;99807.22;1787610;79;21419;-72
2021/04/19 11:19:38;;;;;;;3.65;3.35;;;;;;;19.17;64.09;99803.13;1785560;79;21613;-71
2021/04/19 11:22:34;;;;;;;3.30;3.00;;;;;;;19.13;64.19;99806.79;1786773;79;21666;-69
2021/04/19 11:25:20;;;;;;;3.20;2.87;;;;;;;19.09;64.33;99798.86;1786165;79;21177;-70
2021/04/19 11:27:51;;;;;;;3.00;2.80;;;;;;;19.03;64.44;99801.92;1789065;77;21150;-72
2021/04/19 11:30:24;;;;;;;3.40;3.17;;;;;;;18.99;64.60;99795.87;1785597;77;22424;-70
2021/04/19 11:33:07;;;;;;;3.05;2.72;;;;;;;18.96;64.72;99793.61;1788942;78;21166;-70
2021/04/19 11:35:40;;;;;;;;;;;;;;;18.93;64.76;99797.58;1795740;78;21169;-73
2021/04/19 11:38:09;;;;;;;3.47;3.00;;;;;;;18.89;64.91;99797.72;1802289;77;20296;-74
2021/04/19 11:40:43;;;;;;;4.33;3.58;;;;;;;18.79;65.10;99785.23;1788999;79;21179;-73
2021/04/19 11:43:20;;;;;;;4.53;3.58;;;;;;;18.76;65.27;99788.39;1785497;78;21359;-71
2021/04/19 11:45:57;;;;;;;3.50;3.20;;;;;;;18.76;65.21;99785.70;1791506;77;21150;-69
2021/04/19 11:48:26;;;;;;;3.17;2.87;;;;;;;18.75;65.16;99786.72;1797339;79;21588;-71
2021/04/19 11:50:53;;;;;;;3.05;2.75;;;;;;;18.80;65.05;99778.33;1792085;77;21398;-69
2021/04/19 11:53:29;;;;;;;3.75;2.75;;;;;;;18.86;64.83;99782.81;1798102;77;21145;-70
2021/04/19 11:55:57;;;;;;;3.95;3.55;;;;;;;18.87;64.76;99779.59;1800897;79;22020;-71
2021/04/19 11:58:27;;;;;;;3.92;3.42;;;;;;;18.95;61.76;99777.98;1789783;79;21612;-77
2021/04/19 12:00:54;;;;;;;3.80;3.37;;;;;;;18.97;56.94;99773.73;1797801;77;21146;-72
2021/04/19 12:03:22;;;;;;;6.87;3.90;;;;;;;18.99;54.74;99767.60;1789673;79;21178;-72
2021/04/19 12:05:50;;;;;;;4.12;3.70;;;;;;;18.99;53.69;99768.95;1790852;77;21154;-71